sensor_id;sensor_type;location;lat;lon;timestamp;P1;durP1;ratioP1;P2;durP2;ratioP2
9809;SDS011;4944;52.514;13.192;2023-11-19T00:00:50;5.10;;;4.70;;
9809;SDS011;4944;52.514;13.192;2023-11-19T00:03:17;4.70;;;4.40;;
9809;SDS011;4944;52.514;13.192;2023-11-19T00:05:46;5.10;;;4.60;;
9809;SDS011;4944;52.514;13.192;2023-11-19T00:08:13;4.60;;;4.20;;
9809;SDS011;4944;52.514;13.192;2023-11-19T00:10:40;5.13;;;4.70;;
9809;SDS011;4944;52.514;13.192;2023-11-19T00:13:07;5.33;;;4.83;;
9809;SDS011;4944;52.514;13.192;2023-11-19T00:15:35;4.80;;;4.40;;
9809;SDS011;4944;52.514;13.192;2023-11-19T00:18:02;4.93;;;4.43;;
9809;SDS011;4944;52.514;13.192;2023-11-19T00:20:29;5.40;;;4.87;;
9809;SDS011;4944;52.514;13.192;2023-11-19T00:22:58;5.67;;;4.63;;
9809;SDS011;4944;52.514;13.192;2023-11-19T00:25:26;4.93;;;4.50;;
9809;SDS011;4944;52.514;13.192;2023-11-19T00:27:53;5.10;;;4.57;;
9809;SDS011;4944;52.514;13.192;2023-11-19T00:30:21;5.30;;;4.80;;
9809;SDS011;4944;52.514;13.192;2023-11-19T00:32:48;4.53;;;4.20;;
9809;SDS011;4944;52.514;13.192;2023-11-19T00:35:15;4.73;;;4.33;;
9809;SDS011;4944;52.514;13.192;2023-11-19T00:37:42;4.80;;;4.40;;
9809;SDS011;4944;52.514;13.192;2023-11-19T00:40:12;4.60;;;4.17;;
9809;SDS011;4944;52.514;13.192;2023-11-19T00:42:40;4.73;;;4.43;;
9809;SDS011;4944;52.514;13.192;2023-11-19T00:45:08;4.57;;;4.17;;
9809;SDS011;4944;52.514;13.192;2023-11-19T00:47:37;4.73;;;4.30;;
9809;SDS011;4944;52.514;13.192;2023-11-19T00:50:04;4.60;;;4.20;;
9809;SDS011;4944;52.514;13.192;2023-11-19T00:52:34;5.23;;;4.00;;
9809;SDS011;4944;52.514;13.192;2023-11-19T00:55:01;4.60;;;4.30;;
9809;SDS011;4944;52.514;13.192;2023-11-19T00:57:30;4.10;;;3.80;;
9809;SDS011;4944;52.514;13.192;2023-11-19T00:59:58;4.77;;;4.30;;
9809;SDS011;4944;52.514;13.192;2023-11-19T01:02:25;4.20;;;3.90;;
9809;SDS011;4944;52.514;13.192;2023-11-19T01:04:51;4.67;;;4.27;;
9809;SDS011;4944;52.514;13.192;2023-11-19T01:07:18;4.40;;;4.07;;
9809;SDS011;4944;52.514;13.192;2023-11-19T01:09:47;4.37;;;4.03;;
9809;SDS011;4944;52.514;13.192;2023-11-19T01:12:14;4.53;;;4.13;;
9809;SDS011;4944;52.514;13.192;2023-11-19T01:14:42;4.30;;;4.00;;
9809;SDS011;4944;52.514;13.192;2023-11-19T01:17:09;4.23;;;3.90;;
9809;SDS011;4944;52.514;13.192;2023-11-19T01:19:35;4.60;;;4.20;;
9809;SDS011;4944;52.514;13.192;2023-11-19T01:22:02;4.40;;;4.00;;
9809;SDS011;4944;52.514;13.192;2023-11-19T01:24:29;4.10;;;3.80;;
9809;SDS011;4944;52.514;13.192;2023-11-19T01:26:56;4.17;;;3.87;;
9809;SDS011;4944;52.514;13.192;2023-11-19T01:29:25;4.10;;;3.80;;
9809;SDS011;4944;52.514;13.192;2023-11-19T01:31:53;4.17;;;3.87;;
9809;SDS011;4944;52.514;13.192;2023-11-19T01:34:20;4.00;;;3.70;;
9809;SDS011;4944;52.514;13.192;2023-11-19T01:36:46;4.23;;;3.83;;
9809;SDS011;4944;52.514;13.192;2023-11-19T01:39:14;3.93;;;3.40;;
9809;SDS011;4944;52.514;13.192;2023-11-19T01:41:42;3.90;;;3.60;;
9809;SDS011;4944;52.514;13.192;2023-11-19T01:44:09;4.27;;;3.93;;
9809;SDS011;4944;52.514;13.192;2023-11-19T01:46:37;4.57;;;3.90;;
9809;SDS011;4944;52.514;13.192;2023-11-19T01:49:07;3.90;;;3.60;;
9809;SDS011;4944;52.514;13.192;2023-11-19T01:51:36;3.90;;;3.60;;
9809;SDS011;4944;52.514;13.192;2023-11-19T01:54:05;4.30;;;4.00;;
9809;SDS011;4944;52.514;13.192;2023-11-19T01:56:33;3.73;;;3.50;;
9809;SDS011;4944;52.514;13.192;2023-11-19T01:59:00;4.20;;;3.87;;
9809;SDS011;4944;52.514;13.192;2023-11-19T02:01:28;3.73;;;3.50;;
9809;SDS011;4944;52.514;13.192;2023-11-19T02:03:57;4.53;;;4.10;;
9809;SDS011;4944;52.514;13.192;2023-11-19T02:06:26;4.03;;;3.70;;
9809;SDS011;4944;52.514;13.192;2023-11-19T02:08:54;4.03;;;3.70;;
9809;SDS011;4944;52.514;13.192;2023-11-19T02:11:21;3.77;;;3.47;;
9809;SDS011;4944;52.514;13.192;2023-11-19T02:13:49;4.00;;;3.70;;
9809;SDS011;4944;52.514;13.192;2023-11-19T02:16:16;3.60;;;3.37;;
9809;SDS011;4944;52.514;13.192;2023-11-19T02:18:42;3.57;;;3.37;;
9809;SDS011;4944;52.514;13.192;2023-11-19T02:21:09;4.10;;;3.70;;
9809;SDS011;4944;52.514;13.192;2023-11-19T02:23:38;4.87;;;3.63;;
9809;SDS011;4944;52.514;13.192;2023-11-19T02:26:08;3.73;;;3.40;;
9809;SDS011;4944;52.514;13.192;2023-11-19T02:28:41;3.33;;;3.13;;
9809;SDS011;4944;52.514;13.192;2023-11-19T02:31:09;3.33;;;3.13;;
9809;SDS011;4944;52.514;13.192;2023-11-19T02:33:36;3.50;;;3.20;;
9809;SDS011;4944;52.514;13.192;2023-11-19T02:36:03;3.83;;;3.50;;
9809;SDS011;4944;52.514;13.192;2023-11-19T02:38:32;3.33;;;3.13;;
9809;SDS011;4944;52.514;13.192;2023-11-19T02:40:59;4.07;;;3.27;;
9809;SDS011;4944;52.514;13.192;2023-11-19T02:43:30;3.37;;;3.17;;
9809;SDS011;4944;52.514;13.192;2023-11-19T02:46:00;3.33;;;3.13;;
9809;SDS011;4944;52.514;13.192;2023-11-19T02:48:27;3.40;;;3.10;;
9809;SDS011;4944;52.514;13.192;2023-11-19T02:50:55;3.30;;;3.10;;
9809;SDS011;4944;52.514;13.192;2023-11-19T02:53:23;3.50;;;3.20;;
9809;SDS011;4944;52.514;13.192;2023-11-19T02:55:52;4.77;;;2.90;;
9809;SDS011;4944;52.514;13.192;2023-11-19T02:58:26;3.43;;;3.13;;
9809;SDS011;4944;52.514;13.192;2023-11-19T03:00:53;3.87;;;3.10;;
9809;SDS011;4944;52.514;13.192;2023-11-19T03:03:24;3.13;;;2.93;;
9809;SDS011;4944;52.514;13.192;2023-11-19T03:05:53;3.10;;;2.90;;
9809;SDS011;4944;52.514;13.192;2023-11-19T03:08:21;3.37;;;3.07;;
9809;SDS011;4944;52.514;13.192;2023-11-19T03:10:48;3.53;;;3.13;;
9809;SDS011;4944;52.514;13.192;2023-11-19T03:13:15;3.50;;;3.20;;
9809;SDS011;4944;52.514;13.192;2023-11-19T03:15:43;3.40;;;3.10;;
9809;SDS011;4944;52.514;13.192;2023-11-19T03:18:10;3.30;;;3.10;;
9809;SDS011;4944;52.514;13.192;2023-11-19T03:20:38;3.40;;;3.20;;
9809;SDS011;4944;52.514;13.192;2023-11-19T03:23:05;3.50;;;3.30;;
9809;SDS011;4944;52.514;13.192;2023-11-19T03:25:32;3.57;;;3.27;;
9809;SDS011;4944;52.514;13.192;2023-11-19T03:27:59;3.93;;;3.63;;
9809;SDS011;4944;52.514;13.192;2023-11-19T03:30:27;3.73;;;3.50;;
9809;SDS011;4944;52.514;13.192;2023-11-19T03:32:54;4.97;;;3.73;;
9809;SDS011;4944;52.514;13.192;2023-11-19T03:35:21;4.50;;;4.20;;
9809;SDS011;4944;52.514;13.192;2023-11-19T03:37:49;5.93;;;3.67;;
9809;SDS011;4944;52.514;13.192;2023-11-19T03:40:17;4.80;;;4.40;;
9809;SDS011;4944;52.514;13.192;2023-11-19T03:42:45;4.23;;;3.83;;
9809;SDS011;4944;52.514;13.192;2023-11-19T03:45:12;4.40;;;4.10;;
9809;SDS011;4944;52.514;13.192;2023-11-19T03:47:39;4.37;;;3.93;;
9809;SDS011;4944;52.514;13.192;2023-11-19T03:50:06;4.67;;;4.27;;
9809;SDS011;4944;52.514;13.192;2023-11-19T03:52:34;5.57;;;4.10;;
9809;SDS011;4944;52.514;13.192;2023-11-19T03:55:02;4.77;;;4.37;;
9809;SDS011;4944;52.514;13.192;2023-11-19T03:57:30;4.57;;;4.13;;
9809;SDS011;4944;52.514;13.192;2023-11-19T03:59:57;4.60;;;4.20;;
9809;SDS011;4944;52.514;13.192;2023-11-19T04:02:24;4.70;;;4.37;;
9809;SDS011;4944;52.514;13.192;2023-11-19T04:04:53;5.63;;;4.53;;
9809;SDS011;4944;52.514;13.192;2023-11-19T04:07:21;4.90;;;4.50;;
9809;SDS011;4944;52.514;13.192;2023-11-19T04:09:48;4.77;;;4.37;;
9809;SDS011;4944;52.514;13.192;2023-11-19T04:12:16;4.70;;;4.30;;
9809;SDS011;4944;52.514;13.192;2023-11-19T04:14:43;5.03;;;4.63;;
9809;SDS011;4944;52.514;13.192;2023-11-19T04:17:10;4.90;;;4.50;;
9809;SDS011;4944;52.514;13.192;2023-11-19T04:19:37;5.10;;;4.73;;
9809;SDS011;4944;52.514;13.192;2023-11-19T04:22:06;5.07;;;4.67;;
9809;SDS011;4944;52.514;13.192;2023-11-19T04:24:33;5.00;;;4.60;;
9809;SDS011;4944;52.514;13.192;2023-11-19T04:27:00;5.27;;;4.77;;
9809;SDS011;4944;52.514;13.192;2023-11-19T04:29:29;5.40;;;5.00;;
9809;SDS011;4944;52.514;13.192;2023-11-19T04:31:56;5.77;;;5.17;;
9809;SDS011;4944;52.514;13.192;2023-11-19T04:34:23;5.30;;;4.80;;
9809;SDS011;4944;52.514;13.192;2023-11-19T04:36:51;5.90;;;5.40;;
9809;SDS011;4944;52.514;13.192;2023-11-19T04:39:17;5.50;;;5.00;;
9809;SDS011;4944;52.514;13.192;2023-11-19T04:41:47;5.30;;;4.90;;
9809;SDS011;4944;52.514;13.192;2023-11-19T04:44:15;6.03;;;5.50;;
9809;SDS011;4944;52.514;13.192;2023-11-19T04:46:43;5.47;;;4.97;;
9809;SDS011;4944;52.514;13.192;2023-11-19T04:49:11;5.40;;;5.00;;
9809;SDS011;4944;52.514;13.192;2023-11-19T04:51:40;16.03;;;6.17;;
9809;SDS011;4944;52.514;13.192;2023-11-19T04:54:08;5.30;;;4.90;;
9809;SDS011;4944;52.514;13.192;2023-11-19T04:56:35;5.43;;;4.60;;
9809;SDS011;4944;52.514;13.192;2023-11-19T04:59:02;5.43;;;5.03;;
9809;SDS011;4944;52.514;13.192;2023-11-19T05:01:30;5.23;;;4.83;;
9809;SDS011;4944;52.514;13.192;2023-11-19T05:03:59;5.03;;;4.37;;
9809;SDS011;4944;52.514;13.192;2023-11-19T05:06:26;5.00;;;4.60;;
9809;SDS011;4944;52.514;13.192;2023-11-19T05:08:54;5.40;;;4.90;;
9809;SDS011;4944;52.514;13.192;2023-11-19T05:11:21;5.57;;;5.07;;
9809;SDS011;4944;52.514;13.192;2023-11-19T05:13:48;4.90;;;4.50;;
9809;SDS011;4944;52.514;13.192;2023-11-19T05:16:15;4.67;;;4.37;;
9809;SDS011;4944;52.514;13.192;2023-11-19T05:18:42;6.57;;;4.43;;
9809;SDS011;4944;52.514;13.192;2023-11-19T05:21:11;4.87;;;4.47;;
9809;SDS011;4944;52.514;13.192;2023-11-19T05:23:38;4.13;;;3.83;;
9809;SDS011;4944;52.514;13.192;2023-11-19T05:26:07;4.47;;;4.17;;
9809;SDS011;4944;52.514;13.192;2023-11-19T05:28:35;4.07;;;3.83;;
9809;SDS011;4944;52.514;13.192;2023-11-19T05:31:04;4.70;;;4.30;;
9809;SDS011;4944;52.514;13.192;2023-11-19T05:33:32;4.70;;;4.20;;
9809;SDS011;4944;52.514;13.192;2023-11-19T05:35:58;4.80;;;4.40;;
9809;SDS011;4944;52.514;13.192;2023-11-19T05:38:29;6.23;;;4.50;;
9809;SDS011;4944;52.514;13.192;2023-11-19T05:40:56;4.83;;;4.53;;
9809;SDS011;4944;52.514;13.192;2023-11-19T05:43:23;5.13;;;4.73;;
9809;SDS011;4944;52.514;13.192;2023-11-19T05:45:50;5.50;;;5.00;;
9809;SDS011;4944;52.514;13.192;2023-11-19T05:48:17;8.40;;;5.27;;
9809;SDS011;4944;52.514;13.192;2023-11-19T05:50:44;5.20;;;4.80;;
9809;SDS011;4944;52.514;13.192;2023-11-19T05:53:11;5.33;;;4.83;;
9809;SDS011;4944;52.514;13.192;2023-11-19T05:55:41;5.33;;;4.93;;
9809;SDS011;4944;52.514;13.192;2023-11-19T05:58:13;5.40;;;5.00;;
9809;SDS011;4944;52.514;13.192;2023-11-19T06:00:41;5.80;;;5.30;;
9809;SDS011;4944;52.514;13.192;2023-11-19T06:03:08;5.73;;;5.27;;
9809;SDS011;4944;52.514;13.192;2023-11-19T06:05:35;6.03;;;5.53;;
9809;SDS011;4944;52.514;13.192;2023-11-19T06:08:02;5.40;;;5.00;;
9809;SDS011;4944;52.514;13.192;2023-11-19T06:10:29;5.83;;;5.33;;
9809;SDS011;4944;52.514;13.192;2023-11-19T06:12:58;5.90;;;5.40;;
9809;SDS011;4944;52.514;13.192;2023-11-19T06:15:29;6.00;;;5.40;;
9809;SDS011;4944;52.514;13.192;2023-11-19T06:17:58;5.90;;;5.40;;
9809;SDS011;4944;52.514;13.192;2023-11-19T06:20:26;5.83;;;5.33;;
9809;SDS011;4944;52.514;13.192;2023-11-19T06:22:54;5.90;;;5.40;;
9809;SDS011;4944;52.514;13.192;2023-11-19T06:25:21;8.03;;;5.97;;
9809;SDS011;4944;52.514;13.192;2023-11-19T06:27:49;5.73;;;5.23;;
9809;SDS011;4944;52.514;13.192;2023-11-19T06:30:17;7.53;;;5.80;;
9809;SDS011;4944;52.514;13.192;2023-11-19T06:32:44;6.03;;;5.43;;
9809;SDS011;4944;52.514;13.192;2023-11-19T06:35:12;6.97;;;6.00;;
9809;SDS011;4944;52.514;13.192;2023-11-19T06:37:40;6.07;;;5.57;;
9809;SDS011;4944;52.514;13.192;2023-11-19T06:40:07;6.93;;;6.30;;
9809;SDS011;4944;52.514;13.192;2023-11-19T06:42:35;6.67;;;6.03;;
9809;SDS011;4944;52.514;13.192;2023-11-19T06:45:02;6.53;;;5.87;;
9809;SDS011;4944;52.514;13.192;2023-11-19T06:47:32;6.87;;;5.97;;
9809;SDS011;4944;52.514;13.192;2023-11-19T06:49:59;7.83;;;6.50;;
9809;SDS011;4944;52.514;13.192;2023-11-19T06:52:26;8.10;;;6.30;;
9809;SDS011;4944;52.514;13.192;2023-11-19T06:54:53;7.00;;;6.30;;
9809;SDS011;4944;52.514;13.192;2023-11-19T06:57:21;6.13;;;5.57;;
9809;SDS011;4944;52.514;13.192;2023-11-19T06:59:48;6.73;;;5.60;;
9809;SDS011;4944;52.514;13.192;2023-11-19T07:02:15;7.27;;;5.67;;
9809;SDS011;4944;52.514;13.192;2023-11-19T07:04:44;6.40;;;5.90;;
9809;SDS011;4944;52.514;13.192;2023-11-19T07:07:10;6.13;;;5.60;;
9809;SDS011;4944;52.514;13.192;2023-11-19T07:09:40;6.73;;;6.03;;
9809;SDS011;4944;52.514;13.192;2023-11-19T07:12:07;7.27;;;6.30;;
9809;SDS011;4944;52.514;13.192;2023-11-19T07:14:33;6.77;;;6.03;;
9809;SDS011;4944;52.514;13.192;2023-11-19T07:17:00;6.27;;;5.67;;
9809;SDS011;4944;52.514;13.192;2023-11-19T07:19:27;6.87;;;6.20;;
9809;SDS011;4944;52.514;13.192;2023-11-19T07:21:56;6.07;;;5.57;;
9809;SDS011;4944;52.514;13.192;2023-11-19T07:24:23;7.13;;;6.10;;
9809;SDS011;4944;52.514;13.192;2023-11-19T07:26:49;6.70;;;6.00;;
9809;SDS011;4944;52.514;13.192;2023-11-19T07:29:17;6.80;;;6.10;;
9809;SDS011;4944;52.514;13.192;2023-11-19T07:31:43;6.03;;;5.53;;
9809;SDS011;4944;52.514;13.192;2023-11-19T07:34:10;6.10;;;5.50;;
9809;SDS011;4944;52.514;13.192;2023-11-19T07:36:39;5.93;;;5.43;;
9809;SDS011;4944;52.514;13.192;2023-11-19T07:39:07;5.30;;;4.80;;
9809;SDS011;4944;52.514;13.192;2023-11-19T07:41:35;5.33;;;4.83;;
9809;SDS011;4944;52.514;13.192;2023-11-19T07:44:02;5.90;;;5.40;;
9809;SDS011;4944;52.514;13.192;2023-11-19T07:46:29;5.93;;;5.33;;
9809;SDS011;4944;52.514;13.192;2023-11-19T07:48:57;5.43;;;5.03;;
9809;SDS011;4944;52.514;13.192;2023-11-19T07:51:23;5.77;;;5.07;;
9809;SDS011;4944;52.514;13.192;2023-11-19T07:53:50;6.07;;;4.97;;
9809;SDS011;4944;52.514;13.192;2023-11-19T07:56:19;6.00;;;5.40;;
9809;SDS011;4944;52.514;13.192;2023-11-19T07:58:46;6.30;;;5.70;;
9809;SDS011;4944;52.514;13.192;2023-11-19T08:01:14;5.37;;;4.87;;
9809;SDS011;4944;52.514;13.192;2023-11-19T08:03:42;5.70;;;5.00;;
9809;SDS011;4944;52.514;13.192;2023-11-19T08:06:09;5.63;;;5.13;;
9809;SDS011;4944;52.514;13.192;2023-11-19T08:08:36;5.00;;;4.53;;
9809;SDS011;4944;52.514;13.192;2023-11-19T08:11:04;5.20;;;4.70;;
9809;SDS011;4944;52.514;13.192;2023-11-19T08:13:32;5.20;;;4.70;;
9809;SDS011;4944;52.514;13.192;2023-11-19T08:15:59;5.40;;;4.90;;
9809;SDS011;4944;52.514;13.192;2023-11-19T08:18:26;5.20;;;4.70;;
9809;SDS011;4944;52.514;13.192;2023-11-19T08:20:53;4.80;;;4.37;;
9809;SDS011;4944;52.514;13.192;2023-11-19T08:23:21;6.33;;;5.20;;
9809;SDS011;4944;52.514;13.192;2023-11-19T08:25:50;6.27;;;4.50;;
9809;SDS011;4944;52.514;13.192;2023-11-19T08:28:17;7.80;;;4.70;;
9809;SDS011;4944;52.514;13.192;2023-11-19T08:30:46;5.00;;;4.30;;
9809;SDS011;4944;52.514;13.192;2023-11-19T08:33:13;5.73;;;4.47;;
9809;SDS011;4944;52.514;13.192;2023-11-19T08:35:40;4.50;;;4.20;;
9809;SDS011;4944;52.514;13.192;2023-11-19T08:38:07;5.07;;;4.47;;
9809;SDS011;4944;52.514;13.192;2023-11-19T08:40:34;4.67;;;4.27;;
9809;SDS011;4944;52.514;13.192;2023-11-19T08:43:00;4.83;;;4.43;;
9809;SDS011;4944;52.514;13.192;2023-11-19T08:45:27;5.20;;;4.70;;
9809;SDS011;4944;52.514;13.192;2023-11-19T08:47:56;5.10;;;4.30;;
9809;SDS011;4944;52.514;13.192;2023-11-19T08:50:23;4.30;;;4.00;;
9809;SDS011;4944;52.514;13.192;2023-11-19T08:52:50;4.33;;;3.97;;
9809;SDS011;4944;52.514;13.192;2023-11-19T08:55:17;4.40;;;4.07;;
9809;SDS011;4944;52.514;13.192;2023-11-19T08:57:44;4.33;;;4.00;;
9809;SDS011;4944;52.514;13.192;2023-11-19T09:00:11;4.13;;;3.83;;
9809;SDS011;4944;52.514;13.192;2023-11-19T09:02:39;4.50;;;3.83;;
9809;SDS011;4944;52.514;13.192;2023-11-19T09:05:08;4.17;;;3.87;;
9809;SDS011;4944;52.514;13.192;2023-11-19T09:07:35;4.43;;;4.03;;
9809;SDS011;4944;52.514;13.192;2023-11-19T09:10:02;4.57;;;4.17;;
9809;SDS011;4944;52.514;13.192;2023-11-19T09:12:30;5.70;;;3.80;;
9809;SDS011;4944;52.514;13.192;2023-11-19T09:14:57;4.00;;;3.70;;
9809;SDS011;4944;52.514;13.192;2023-11-19T09:17:27;4.27;;;3.83;;
9809;SDS011;4944;52.514;13.192;2023-11-19T09:19:54;4.07;;;3.60;;
9809;SDS011;4944;52.514;13.192;2023-11-19T09:22:22;4.23;;;3.80;;
9809;SDS011;4944;52.514;13.192;2023-11-19T09:24:49;3.70;;;3.40;;
9809;SDS011;4944;52.514;13.192;2023-11-19T09:27:16;4.27;;;3.87;;
9809;SDS011;4944;52.514;13.192;2023-11-19T09:29:44;5.00;;;3.63;;
9809;SDS011;4944;52.514;13.192;2023-11-19T09:32:11;6.00;;;3.80;;
9809;SDS011;4944;52.514;13.192;2023-11-19T09:34:38;3.80;;;3.50;;
9809;SDS011;4944;52.514;13.192;2023-11-19T09:37:05;4.83;;;3.50;;
9809;SDS011;4944;52.514;13.192;2023-11-19T09:39:34;3.50;;;3.30;;
9809;SDS011;4944;52.514;13.192;2023-11-19T09:42:01;3.50;;;3.20;;
9809;SDS011;4944;52.514;13.192;2023-11-19T09:44:28;3.40;;;3.10;;
9809;SDS011;4944;52.514;13.192;2023-11-19T09:46:56;3.23;;;3.00;;
9809;SDS011;4944;52.514;13.192;2023-11-19T09:49:25;3.77;;;2.80;;
9809;SDS011;4944;52.514;13.192;2023-11-19T09:51:53;4.70;;;3.10;;
9809;SDS011;4944;52.514;13.192;2023-11-19T09:54:20;3.77;;;2.63;;
9809;SDS011;4944;52.514;13.192;2023-11-19T09:56:49;3.63;;;2.97;;
9809;SDS011;4944;52.514;13.192;2023-11-19T09:59:16;3.03;;;2.73;;
9809;SDS011;4944;52.514;13.192;2023-11-19T10:01:43;5.47;;;2.83;;
9809;SDS011;4944;52.514;13.192;2023-11-19T10:04:13;3.27;;;2.80;;
9809;SDS011;4944;52.514;13.192;2023-11-19T10:06:43;2.73;;;2.50;;
9809;SDS011;4944;52.514;13.192;2023-11-19T10:09:11;2.90;;;2.63;;
9809;SDS011;4944;52.514;13.192;2023-11-19T10:11:40;3.07;;;2.83;;
9809;SDS011;4944;52.514;13.192;2023-11-19T10:14:08;3.20;;;2.87;;
9809;SDS011;4944;52.514;13.192;2023-11-19T10:16:36;4.33;;;2.80;;
9809;SDS011;4944;52.514;13.192;2023-11-19T10:19:04;5.57;;;2.83;;
9809;SDS011;4944;52.514;13.192;2023-11-19T10:21:32;3.93;;;2.83;;
9809;SDS011;4944;52.514;13.192;2023-11-19T10:23:59;3.53;;;2.70;;
9809;SDS011;4944;52.514;13.192;2023-11-19T10:26:27;9.00;;;2.73;;
9809;SDS011;4944;52.514;13.192;2023-11-19T10:28:55;8.13;;;3.30;;
9809;SDS011;4944;52.514;13.192;2023-11-19T10:31:23;5.40;;;3.00;;
9809;SDS011;4944;52.514;13.192;2023-11-19T10:33:51;11.10;;;3.03;;
9809;SDS011;4944;52.514;13.192;2023-11-19T10:36:19;9.43;;;4.10;;
9809;SDS011;4944;52.514;13.192;2023-11-19T10:38:52;6.23;;;3.30;;
9809;SDS011;4944;52.514;13.192;2023-11-19T10:41:29;11.73;;;3.67;;
9809;SDS011;4944;52.514;13.192;2023-11-19T10:43:56;6.07;;;3.20;;
9809;SDS011;4944;52.514;13.192;2023-11-19T10:46:35;10.50;;;3.57;;
9809;SDS011;4944;52.514;13.192;2023-11-19T10:49:04;12.43;;;4.27;;
9809;SDS011;4944;52.514;13.192;2023-11-19T10:51:32;10.63;;;3.40;;
9809;SDS011;4944;52.514;13.192;2023-11-19T10:54:01;11.73;;;5.00;;
9809;SDS011;4944;52.514;13.192;2023-11-19T10:56:30;14.60;;;4.60;;
9809;SDS011;4944;52.514;13.192;2023-11-19T10:58:59;9.00;;;4.53;;
9809;SDS011;4944;52.514;13.192;2023-11-19T11:01:34;10.70;;;3.73;;
9809;SDS011;4944;52.514;13.192;2023-11-19T11:04:05;8.07;;;3.60;;
9809;SDS011;4944;52.514;13.192;2023-11-19T11:06:39;11.27;;;3.93;;
9809;SDS011;4944;52.514;13.192;2023-11-19T11:09:06;12.67;;;3.87;;
9809;SDS011;4944;52.514;13.192;2023-11-19T11:11:37;11.30;;;3.40;;
9809;SDS011;4944;52.514;13.192;2023-11-19T11:14:04;7.90;;;3.13;;
9809;SDS011;4944;52.514;13.192;2023-11-19T11:16:33;13.97;;;3.53;;
9809;SDS011;4944;52.514;13.192;2023-11-19T11:19:02;12.07;;;3.77;;
9809;SDS011;4944;52.514;13.192;2023-11-19T11:21:29;9.23;;;3.17;;
9809;SDS011;4944;52.514;13.192;2023-11-19T11:24:01;11.63;;;3.80;;
9809;SDS011;4944;52.514;13.192;2023-11-19T11:26:57;11.23;;;3.27;;
9809;SDS011;4944;52.514;13.192;2023-11-19T11:29:41;10.13;;;4.03;;
9809;SDS011;4944;52.514;13.192;2023-11-19T11:32:20;12.63;;;3.77;;
9809;SDS011;4944;52.514;13.192;2023-11-19T11:35:08;14.47;;;4.27;;
9809;SDS011;4944;52.514;13.192;2023-11-19T11:37:45;13.30;;;4.07;;
9809;SDS011;4944;52.514;13.192;2023-11-19T11:40:15;10.87;;;3.70;;
9809;SDS011;4944;52.514;13.192;2023-11-19T11:42:43;13.97;;;3.30;;
9809;SDS011;4944;52.514;13.192;2023-11-19T11:45:10;11.17;;;3.60;;
9809;SDS011;4944;52.514;13.192;2023-11-19T11:53:31;12.03;;;3.70;;
9809;SDS011;4944;52.514;13.192;2023-11-19T11:56:02;10.43;;;3.43;;
9809;SDS011;4944;52.514;13.192;2023-11-19T11:58:31;12.97;;;3.87;;
9809;SDS011;4944;52.514;13.192;2023-11-19T12:00:59;9.63;;;3.43;;
9809;SDS011;4944;52.514;13.192;2023-11-19T12:03:30;9.40;;;3.27;;
9809;SDS011;4944;52.514;13.192;2023-11-19T12:05:58;12.10;;;3.83;;
9809;SDS011;4944;52.514;13.192;2023-11-19T12:08:27;9.97;;;3.60;;
9809;SDS011;4944;52.514;13.192;2023-11-19T12:10:56;13.67;;;3.93;;
9809;SDS011;4944;52.514;13.192;2023-11-19T12:13:24;13.43;;;3.77;;
9809;SDS011;4944;52.514;13.192;2023-11-19T12:16:09;17.40;;;3.90;;
9809;SDS011;4944;52.514;13.192;2023-11-19T12:18:38;11.70;;;3.73;;
9809;SDS011;4944;52.514;13.192;2023-11-19T12:21:07;11.30;;;3.53;;
9809;SDS011;4944;52.514;13.192;2023-11-19T12:23:38;16.07;;;3.97;;
9809;SDS011;4944;52.514;13.192;2023-11-19T12:29:09;13.60;;;3.90;;
9809;SDS011;4944;52.514;13.192;2023-11-19T12:31:36;15.93;;;4.40;;
9809;SDS011;4944;52.514;13.192;2023-11-19T12:34:09;11.73;;;3.90;;
9809;SDS011;4944;52.514;13.192;2023-11-19T12:36:37;14.77;;;3.93;;
9809;SDS011;4944;52.514;13.192;2023-11-19T12:39:07;11.37;;;3.73;;
9809;SDS011;4944;52.514;13.192;2023-11-19T12:44:24;15.00;;;4.07;;
9809;SDS011;4944;52.514;13.192;2023-11-19T12:47:01;12.70;;;3.67;;
9809;SDS011;4944;52.514;13.192;2023-11-19T12:49:28;16.77;;;4.00;;
9809;SDS011;4944;52.514;13.192;2023-11-19T12:51:55;13.67;;;3.87;;
9809;SDS011;4944;52.514;13.192;2023-11-19T12:54:32;13.53;;;3.67;;
9809;SDS011;4944;52.514;13.192;2023-11-19T12:57:00;18.27;;;4.47;;
9809;SDS011;4944;52.514;13.192;2023-11-19T12:59:27;14.53;;;4.17;;
9809;SDS011;4944;52.514;13.192;2023-11-19T13:01:54;9.87;;;3.37;;
9809;SDS011;4944;52.514;13.192;2023-11-19T13:04:21;15.50;;;3.80;;
9809;SDS011;4944;52.514;13.192;2023-11-19T13:06:49;12.60;;;3.73;;
9809;SDS011;4944;52.514;13.192;2023-11-19T13:09:22;13.33;;;4.03;;
9809;SDS011;4944;52.514;13.192;2023-11-19T13:11:51;15.77;;;4.20;;
9809;SDS011;4944;52.514;13.192;2023-11-19T13:14:19;19.17;;;3.73;;
9809;SDS011;4944;52.514;13.192;2023-11-19T13:16:47;16.90;;;4.43;;
9809;SDS011;4944;52.514;13.192;2023-11-19T13:19:14;18.03;;;4.50;;
9809;SDS011;4944;52.514;13.192;2023-11-19T13:21:44;15.40;;;4.17;;
9809;SDS011;4944;52.514;13.192;2023-11-19T13:24:12;11.47;;;3.80;;
9809;SDS011;4944;52.514;13.192;2023-11-19T13:26:39;11.27;;;3.93;;
9809;SDS011;4944;52.514;13.192;2023-11-19T13:29:07;15.47;;;3.93;;
9809;SDS011;4944;52.514;13.192;2023-11-19T13:31:35;12.77;;;3.60;;
9809;SDS011;4944;52.514;13.192;2023-11-19T13:34:02;14.23;;;3.10;;
9809;SDS011;4944;52.514;13.192;2023-11-19T13:36:32;13.80;;;4.30;;
9809;SDS011;4944;52.514;13.192;2023-11-19T13:38:59;16.50;;;4.10;;
9809;SDS011;4944;52.514;13.192;2023-11-19T13:41:26;15.33;;;4.17;;
9809;SDS011;4944;52.514;13.192;2023-11-19T13:43:53;17.23;;;4.17;;
9809;SDS011;4944;52.514;13.192;2023-11-19T13:46:21;14.70;;;3.93;;
9809;SDS011;4944;52.514;13.192;2023-11-19T13:48:48;12.07;;;4.63;;
9809;SDS011;4944;52.514;13.192;2023-11-19T13:51:15;12.57;;;4.10;;
9809;SDS011;4944;52.514;13.192;2023-11-19T13:53:42;17.63;;;4.37;;
9809;SDS011;4944;52.514;13.192;2023-11-19T13:56:09;14.13;;;4.10;;
9809;SDS011;4944;52.514;13.192;2023-11-19T13:58:36;17.07;;;4.70;;
9809;SDS011;4944;52.514;13.192;2023-11-19T14:01:05;15.17;;;3.93;;
9809;SDS011;4944;52.514;13.192;2023-11-19T14:03:33;14.47;;;4.43;;
9809;SDS011;4944;52.514;13.192;2023-11-19T14:06:00;14.23;;;3.93;;
9809;SDS011;4944;52.514;13.192;2023-11-19T14:08:27;17.33;;;4.23;;
9809;SDS011;4944;52.514;13.192;2023-11-19T14:10:54;13.70;;;3.87;;
9809;SDS011;4944;52.514;13.192;2023-11-19T14:13:21;24.20;;;4.47;;
9809;SDS011;4944;52.514;13.192;2023-11-19T14:15:49;17.63;;;4.50;;
9809;SDS011;4944;52.514;13.192;2023-11-19T14:18:16;15.43;;;4.30;;
9809;SDS011;4944;52.514;13.192;2023-11-19T14:20:44;17.10;;;4.23;;
9809;SDS011;4944;52.514;13.192;2023-11-19T14:23:11;14.77;;;3.87;;
9809;SDS011;4944;52.514;13.192;2023-11-19T14:25:38;16.07;;;4.63;;
9809;SDS011;4944;52.514;13.192;2023-11-19T14:28:05;16.47;;;4.47;;
9809;SDS011;4944;52.514;13.192;2023-11-19T14:30:32;14.10;;;4.10;;
9809;SDS011;4944;52.514;13.192;2023-11-19T14:32:59;17.20;;;4.50;;
9809;SDS011;4944;52.514;13.192;2023-11-19T14:35:28;18.13;;;4.60;;
9809;SDS011;4944;52.514;13.192;2023-11-19T14:37:56;15.37;;;4.23;;
9809;SDS011;4944;52.514;13.192;2023-11-19T14:40:23;12.27;;;3.90;;
9809;SDS011;4944;52.514;13.192;2023-11-19T14:42:50;17.37;;;4.00;;
9809;SDS011;4944;52.514;13.192;2023-11-19T14:45:17;17.50;;;4.13;;
9809;SDS011;4944;52.514;13.192;2023-11-19T14:47:44;18.53;;;5.03;;
9809;SDS011;4944;52.514;13.192;2023-11-19T14:50:11;15.53;;;4.07;;
9809;SDS011;4944;52.514;13.192;2023-11-19T14:52:38;14.47;;;4.30;;
9809;SDS011;4944;52.514;13.192;2023-11-19T14:55:07;17.40;;;4.50;;
9809;SDS011;4944;52.514;13.192;2023-11-19T14:57:34;16.57;;;3.40;;
9809;SDS011;4944;52.514;13.192;2023-11-19T15:00:04;15.50;;;3.97;;
9809;SDS011;4944;52.514;13.192;2023-11-19T15:02:38;18.63;;;4.30;;
9809;SDS011;4944;52.514;13.192;2023-11-19T15:05:05;13.80;;;3.87;;
9809;SDS011;4944;52.514;13.192;2023-11-19T15:07:34;14.83;;;3.80;;
9809;SDS011;4944;52.514;13.192;2023-11-19T15:10:01;11.43;;;3.40;;
9809;SDS011;4944;52.514;13.192;2023-11-19T15:12:35;12.83;;;4.33;;
9809;SDS011;4944;52.514;13.192;2023-11-19T15:15:05;17.03;;;3.90;;